createdAt,value
2022-12-08T00:01:52.849Z,101123.12
2022-12-08T00:04:21.386Z,101130.91
2022-12-08T00:07:07.991Z,101131.84
2022-12-08T00:09:39.919Z,101127.53
2022-12-08T00:12:17.162Z,101120.78
2022-12-08T00:14:47.505Z,101119.81
2022-12-08T00:17:16.575Z,101119.00
2022-12-08T00:19:45.396Z,101121.53
2022-12-08T00:22:15.022Z,101119.06
2022-12-08T00:24:45.866Z,101112.22
2022-12-08T00:27:18.335Z,101111.34
2022-12-08T00:29:46.218Z,101102.03
2022-12-08T00:32:14.576Z,101098.69
2022-12-08T00:34:42.407Z,101088.50
2022-12-08T00:37:10.221Z,101079.97
2022-12-08T00:39:38.453Z,101076.59
2022-12-08T00:42:13.574Z,101071.41
2022-12-08T00:44:46.475Z,101082.62
2022-12-08T00:47:15.186Z,101071.41
2022-12-08T00:49:46.162Z,101069.84
2022-12-08T00:52:14.067Z,101068.03
2022-12-08T00:54:41.961Z,101080.00
2022-12-08T00:57:10.481Z,101094.44
2022-12-08T00:59:38.159Z,101074.03
2022-12-08T01:02:06.840Z,101075.00
2022-12-08T01:04:35.029Z,101076.63
2022-12-08T01:07:02.869Z,101079.22
2022-12-08T01:09:30.669Z,101075.00
2022-12-08T01:11:58.833Z,101064.72
2022-12-08T01:14:26.781Z,101070.66
2022-12-08T01:16:54.694Z,101061.22
2022-12-08T01:19:23.155Z,101064.78
2022-12-08T01:21:51.155Z,101073.38
2022-12-08T01:24:21.339Z,101070.69
2022-12-08T01:26:50.826Z,101073.25
2022-12-08T01:29:18.654Z,101077.47
2022-12-08T01:31:46.584Z,101087.66
2022-12-08T01:34:15.127Z,101080.09
2022-12-08T01:36:44.675Z,101072.34
2022-12-08T01:39:18.142Z,101068.13
2022-12-08T01:41:47.996Z,101063.94
2022-12-08T01:44:15.770Z,101065.47
2022-12-08T01:46:45.686Z,101064.75
2022-12-08T01:49:23.153Z,101065.59
2022-12-08T01:52:11.624Z,101065.56
2022-12-08T01:55:03.289Z,101075.78
2022-12-08T01:57:45.006Z,101070.69
2022-12-08T02:00:16.476Z,101053.69
2022-12-08T02:02:59.319Z,101050.28
2022-12-08T02:05:41.485Z,101054.50
2022-12-08T02:08:12.339Z,101056.19
2022-12-08T02:10:43.535Z,101052.72
2022-12-08T02:13:16.429Z,101057.91
2022-12-08T02:15:47.252Z,101053.59
2022-12-08T02:18:28.925Z,101050.19
2022-12-08T02:21:13.298Z,101058.94
2022-12-08T02:23:50.814Z,101055.44
2022-12-08T02:26:24.358Z,101054.56
2022-12-08T02:29:15.345Z,101056.25
2022-12-08T02:32:01.342Z,101047.03
2022-12-08T02:34:45.856Z,101028.84
2022-12-08T02:37:31.430Z,101040.84
2022-12-08T02:40:28.480Z,101040.06
2022-12-08T02:43:14.789Z,101033.34
2022-12-08T02:46:01.741Z,101024.75
2022-12-08T02:48:30.573Z,101030.44
2022-12-08T02:50:58.905Z,101023.97
2022-12-08T02:53:30.801Z,101023.97
2022-12-08T02:56:10.891Z,101024.88
2022-12-08T02:59:07.900Z,101016.31
2022-12-08T03:02:02.543Z,101029.09
2022-12-08T03:04:50.634Z,101023.06
2022-12-08T03:07:33.814Z,101018.78
2022-12-08T03:10:45.235Z,101022.88
2022-12-08T03:13:49.542Z,101015.25
2022-12-08T03:16:23.550Z,101017.16
2022-12-08T03:19:11.249Z,101013.78
2022-12-08T03:21:40.605Z,101009.56
2022-12-08T03:24:11.286Z,101012.03
2022-12-08T03:26:57.422Z,101012.03
2022-12-08T03:29:25.979Z,101003.53
2022-12-08T03:32:02.993Z,101008.62
2022-12-08T03:34:31.835Z,101000.16
2022-12-08T03:37:02.806Z,101002.75
2022-12-08T03:39:31.064Z,100994.16
2022-12-08T03:42:01.842Z,100990.75
2022-12-08T03:44:32.742Z,100991.66
2022-12-08T03:47:00.902Z,100989.03
2022-12-08T03:49:28.715Z,100984.72
2022-12-08T03:51:56.587Z,100981.16
2022-12-08T03:54:24.869Z,100994.16
2022-12-08T03:56:52.678Z,100993.41
2022-12-08T03:59:23.508Z,100974.53
2022-12-08T04:01:51.762Z,100980.59
2022-12-08T04:04:20.089Z,100978.91
2022-12-08T04:06:48.022Z,100967.81
2022-12-08T04:09:15.707Z,100978.06
2022-12-08T04:11:44.046Z,100977.19
2022-12-08T04:14:11.955Z,100973.78
2022-12-08T04:16:39.773Z,100971.19
2022-12-08T04:19:08.111Z,100973.00
2022-12-08T04:21:36.003Z,100976.31
2022-12-08T04:24:03.978Z,100978.03
2022-12-08T04:26:32.287Z,100966.06
2022-12-08T04:29:00.093Z,100968.69
2022-12-08T04:31:28.116Z,100965.25
2022-12-08T04:33:56.331Z,100968.72
2022-12-08T04:36:24.203Z,100967.88
2022-12-08T04:38:52.116Z,100973.78
2022-12-08T04:41:23.128Z,100965.19
2022-12-08T04:43:51.009Z,100963.63
2022-12-08T04:46:18.893Z,100961.91
2022-12-08T04:48:47.257Z,100965.28
2022-12-08T04:51:19.951Z,100961.91
2022-12-08T04:53:51.050Z,100961.06
2022-12-08T04:56:19.906Z,100967.00
2022-12-08T04:58:48.086Z,100962.00
2022-12-08T05:01:16.521Z,100966.19
2022-12-08T05:03:44.329Z,100964.50
2022-12-08T05:06:15.600Z,100952.56
2022-12-08T05:08:44.283Z,100953.44
2022-12-08T05:11:13.595Z,100957.66
2022-12-08T05:13:41.573Z,100956.84
2022-12-08T05:16:14.964Z,100966.38
2022-12-08T05:18:43.875Z,100971.38
2022-12-08T05:21:15.307Z,100967.97
2022-12-08T05:23:43.485Z,100960.19
2022-12-08T05:26:11.105Z,100966.03
2022-12-08T05:28:41.858Z,100966.34
2022-12-08T05:31:16.588Z,100967.19
2022-12-08T05:33:45.740Z,100962.03
2022-12-08T05:36:15.256Z,100961.06
2022-12-08T05:38:49.678Z,100956.91
2022-12-08T05:41:21.071Z,100959.41
2022-12-08T05:43:49.259Z,100957.72
2022-12-08T05:46:17.800Z,100955.13
2022-12-08T05:48:45.852Z,100955.87
2022-12-08T05:51:22.413Z,100953.50
2022-12-08T05:53:52.193Z,100942.47
2022-12-08T05:56:20.787Z,100938.06
2022-12-08T05:58:49.087Z,100940.59
2022-12-08T06:01:22.590Z,100945.81
2022-12-08T06:03:51.665Z,100938.13
2022-12-08T06:06:22.751Z,100935.66
2022-12-08T06:08:51.628Z,100938.03
2022-12-08T06:11:28.834Z,100937.28
2022-12-08T06:13:58.186Z,100937.31
2022-12-08T06:16:27.371Z,100932.09
2022-12-08T06:18:55.981Z,100934.81
2022-12-08T06:21:24.801Z,100939.06
2022-12-08T06:23:54.136Z,100940.81
2022-12-08T06:26:22.407Z,100942.31
2022-12-08T06:28:50.985Z,100931.47
2022-12-08T06:31:22.249Z,100931.50
2022-12-08T06:33:51.025Z,100934.91
2022-12-08T06:36:24.782Z,100944.25
2022-12-08T06:38:53.313Z,100946.75
2022-12-08T06:41:22.114Z,100945.97
2022-12-08T06:43:49.912Z,100952.75
2022-12-08T06:46:20.086Z,100952.84
2022-12-08T06:48:48.322Z,100956.94
2022-12-08T06:51:18.889Z,100967.25
2022-12-08T06:53:47.905Z,100968.13
2022-12-08T06:56:16.377Z,100962.09
2022-12-08T06:58:49.030Z,100951.09
2022-12-08T07:01:23.324Z,100959.59
2022-12-08T07:03:51.268Z,100948.50
2022-12-08T07:06:23.446Z,100936.56
2022-12-08T07:08:54.810Z,100948.47
2022-12-08T07:11:22.898Z,100931.53
2022-12-08T07:13:51.713Z,100928.16
2022-12-08T07:16:19.730Z,100924.72
2022-12-08T07:18:47.743Z,100924.75
2022-12-08T07:21:17.027Z,100923.75
2022-12-08T07:23:55.793Z,100920.44
2022-12-08T07:26:27.269Z,100923.97
2022-12-08T07:28:58.163Z,100913.69
2022-12-08T07:31:28.178Z,100912.00
2022-12-08T07:33:57.361Z,100926.59
2022-12-08T07:36:28.371Z,100918.03
2022-12-08T07:38:57.062Z,100925.72
2022-12-08T07:41:26.585Z,100929.97
2022-12-08T07:43:54.614Z,100930.03
2022-12-08T07:46:24.523Z,100920.56
2022-12-08T07:48:59.249Z,100927.44
2022-12-08T07:51:27.551Z,100929.22
2022-12-08T07:53:55.508Z,100920.66
2022-12-08T07:56:24.476Z,100916.34
2022-12-08T07:58:52.950Z,100924.13
2022-12-08T08:01:30.234Z,100919.84
2022-12-08T08:04:04.928Z,100919.84
2022-12-08T08:06:34.623Z,100930.12
2022-12-08T08:09:02.967Z,100922.41
2022-12-08T08:11:30.731Z,100921.59
2022-12-08T08:13:58.797Z,100919.03
2022-12-08T08:16:27.529Z,100924.19
2022-12-08T08:18:55.917Z,100913.97
2022-12-08T08:24:12.352Z,100919.75
2022-12-08T08:26:40.245Z,100909.69
2022-12-08T08:29:08.094Z,100912.25
2022-12-08T08:31:36.470Z,100909.75
2022-12-08T08:34:06.742Z,100902.00
2022-12-08T08:36:34.719Z,100909.81
2022-12-08T08:39:03.665Z,100902.16
2022-12-08T08:41:31.716Z,100905.63
2022-12-08T08:44:02.736Z,100895.31
2022-12-08T08:46:31.172Z,100901.37
2022-12-08T08:48:59.288Z,100904.81
2022-12-08T08:51:27.143Z,100892.03
2022-12-08T08:53:55.385Z,100892.13
2022-12-08T08:56:23.322Z,100890.38
2022-12-08T08:58:54.549Z,100893.78
2022-12-08T09:01:25.952Z,100885.25
2022-12-08T09:03:57.797Z,100889.56
2022-12-08T09:06:28.344Z,100892.13
2022-12-08T09:08:56.510Z,100889.56
2022-12-08T09:11:24.504Z,100886.97
2022-12-08T09:13:54.047Z,100888.72
2022-12-08T09:16:23.076Z,100895.53
2022-12-08T09:18:54.725Z,100888.69
2022-12-08T09:21:26.278Z,100893.75
2022-12-08T09:23:57.730Z,100886.94
2022-12-08T09:26:27.436Z,100886.12
2022-12-08T09:28:59.802Z,100882.72
2022-12-08T09:31:27.978Z,100878.47
2022-12-08T09:33:59.700Z,100880.19
2022-12-08T09:36:27.757Z,100872.47
2022-12-08T09:38:56.038Z,100873.41
2022-12-08T09:41:40.651Z,100879.28
2022-12-08T09:44:33.728Z,100878.50
2022-12-08T09:47:03.860Z,100892.13
2022-12-08T09:49:42.937Z,100889.59
2022-12-08T09:52:30.600Z,100882.81
2022-12-08T09:55:03.570Z,100873.44
2022-12-08T09:57:32.341Z,100866.63
2022-12-08T10:00:05.969Z,100864.94
2022-12-08T10:02:34.777Z,100868.34
2022-12-08T10:05:02.740Z,100868.31
2022-12-08T10:07:47.453Z,100858.06
2022-12-08T10:10:40.672Z,100862.38
2022-12-08T10:13:29.546Z,100860.69
2022-12-08T10:16:35.446Z,100870.87
2022-12-08T10:19:27.428Z,100864.06
2022-12-08T10:21:57.568Z,100865.84
2022-12-08T10:24:33.208Z,100866.66
2022-12-08T10:27:02.717Z,100839.41
2022-12-08T10:29:30.462Z,100844.53
2022-12-08T10:32:00.004Z,100854.78
2022-12-08T10:34:28.416Z,100845.34
2022-12-08T10:37:00.991Z,100846.22
2022-12-08T10:39:39.954Z,100847.94
2022-12-08T10:42:17.420Z,100855.66
2022-12-08T10:44:57.728Z,100858.16
2022-12-08T10:47:28.135Z,100857.34
2022-12-08T10:50:22.169Z,100847.06
2022-12-08T10:52:59.384Z,100852.22
2022-12-08T10:55:28.551Z,100853.94
2022-12-08T10:57:56.597Z,100850.44
2022-12-08T11:00:28.064Z,100854.75
2022-12-08T11:03:01.226Z,100864.09
2022-12-08T11:05:35.844Z,100855.66
2022-12-08T11:08:06.140Z,100857.22
2022-12-08T11:10:37.301Z,100864.13
2022-12-08T11:13:13.685Z,100855.66
2022-12-08T11:15:41.826Z,100863.28
2022-12-08T11:18:23.197Z,100863.28
2022-12-08T11:20:59.280Z,100859.91
2022-12-08T11:23:29.208Z,100853.13
2022-12-08T11:26:02.687Z,100858.16
2022-12-08T11:28:30.974Z,100860.75
2022-12-08T11:31:22.699Z,100861.56
2022-12-08T11:33:53.184Z,100851.38
2022-12-08T11:36:24.147Z,100850.47
2022-12-08T11:39:00.175Z,100854.78
2022-12-08T11:41:36.443Z,100863.28
2022-12-08T11:44:28.943Z,100867.59
2022-12-08T11:47:01.655Z,100859.09
2022-12-08T11:49:37.407Z,100848.84
2022-12-08T11:52:23.024Z,100853.09
2022-12-08T11:55:03.572Z,100855.62
2022-12-08T11:57:31.650Z,100855.59
2022-12-08T12:00:02.158Z,100855.62
2022-12-08T12:02:45.364Z,100851.41
2022-12-08T12:06:12.939Z,100845.44
2022-12-08T12:09:08.533Z,100835.97
2022-12-08T12:12:12.605Z,100851.44
2022-12-08T12:14:43.184Z,100847.09
2022-12-08T12:17:44.264Z,100848.00
2022-12-08T12:20:32.454Z,100846.31
2022-12-08T12:23:23.287Z,100843.78
2022-12-08T12:26:00.359Z,100844.63
2022-12-08T12:28:37.100Z,100848.84
2022-12-08T12:31:11.724Z,100856.56
2022-12-08T12:33:39.910Z,100865.97
2022-12-08T12:36:09.244Z,100857.41
2022-12-08T12:39:03.839Z,100842.09
2022-12-08T12:41:55.624Z,100836.13
2022-12-08T12:44:39.457Z,100837.75
2022-12-08T12:47:12.864Z,100849.69
2022-12-08T12:49:48.937Z,100842.88
2022-12-08T12:52:17.026Z,100848.88
2022-12-08T12:54:50.626Z,100841.19
2022-12-08T12:57:18.675Z,100845.47
2022-12-08T12:59:56.253Z,100852.31
2022-12-08T13:02:31.601Z,100844.63
2022-12-08T13:05:10.463Z,100852.25
2022-12-08T13:08:01.100Z,100839.53
2022-12-08T13:10:40.146Z,100835.22
2022-12-08T13:13:10.957Z,100833.59
2022-12-08T13:15:39.829Z,100838.69
2022-12-08T13:21:36.640Z,100853.19
2022-12-08T13:24:10.749Z,100855.75
2022-12-08T13:26:50.145Z,100855.69
2022-12-08T13:29:24.066Z,100856.59
2022-12-08T13:34:51.670Z,100864.28
2022-12-08T13:37:53.857Z,100869.25
2022-12-08T13:40:32.750Z,100868.41
2022-12-08T13:43:52.464Z,100879.53
2022-12-08T13:47:25.156Z,100868.53
2022-12-08T13:58:44.021Z,100875.28
2022-12-08T14:01:24.384Z,100875.38
2022-12-08T14:04:34.187Z,100871.97
2022-12-08T14:06:56.294Z,100881.34
2022-12-08T14:09:28.992Z,100872.00
2022-12-08T14:12:00.809Z,100875.41
2022-12-08T14:15:01.768Z,100872.00
2022-12-08T14:17:24.724Z,100864.25
2022-12-08T14:20:00.981Z,100875.25
2022-12-08T14:22:37.933Z,100874.41
2022-12-08T14:25:10.520Z,100863.47
2022-12-08T14:27:38.923Z,100865.19
2022-12-08T14:30:07.950Z,100860.84
2022-12-08T14:32:43.056Z,100866.81
2022-12-08T14:35:11.275Z,100848.91
2022-12-08T14:37:43.185Z,100855.75
2022-12-08T14:40:34.372Z,100855.78
2022-12-08T14:43:08.039Z,100854.94
2022-12-08T14:45:42.816Z,100870.25
2022-12-08T14:48:28.641Z,100869.44
2022-12-08T14:51:23.009Z,100864.31
2022-12-08T14:54:13.714Z,100858.34
2022-12-08T14:56:55.942Z,100863.50
2022-12-08T14:59:37.021Z,100859.22
2022-12-08T15:02:22.012Z,100862.62
2022-12-08T15:04:58.211Z,100861.75
2022-12-08T15:07:30.797Z,100866.03
2022-12-08T15:10:17.027Z,100871.16
2022-12-08T15:13:08.827Z,100867.75
2022-12-08T15:16:29.219Z,100873.75
2022-12-08T15:19:18.724Z,100876.31
2022-12-08T15:21:47.708Z,100874.59
2022-12-08T15:24:23.147Z,100885.66
2022-12-08T15:26:52.356Z,100884.75
2022-12-08T15:29:25.044Z,100897.56
2022-12-08T15:31:55.447Z,100889.97
2022-12-08T15:34:23.852Z,100890.81
2022-12-08T15:36:53.980Z,100891.66
2022-12-08T15:39:26.156Z,100894.22
2022-12-08T15:41:54.484Z,100892.47
2022-12-08T15:44:23.311Z,100885.66
2022-12-08T15:46:51.516Z,100885.59
2022-12-08T15:49:24.708Z,100883.12
2022-12-08T15:51:59.456Z,100884.84
2022-12-08T15:54:33.445Z,100884.84
2022-12-08T15:57:19.178Z,100889.09
2022-12-08T15:59:49.126Z,100891.69
2022-12-08T16:02:22.370Z,100902.69
2022-12-08T16:07:40.455Z,100901.03
2022-12-08T16:10:17.821Z,100903.53
2022-12-08T16:16:00.438Z,100901.91
2022-12-08T16:18:33.316Z,100909.62
2022-12-08T16:21:41.897Z,100906.19
2022-12-08T16:23:49.997Z,100906.12
2022-12-08T16:27:06.922Z,100896.81
2022-12-08T16:29:20.315Z,100898.50
2022-12-08T16:31:49.348Z,100907.91
2022-12-08T16:34:20.211Z,100889.06
2022-12-08T16:36:48.557Z,100892.50
2022-12-08T16:39:16.542Z,100893.28
2022-12-08T16:42:02.672Z,100891.66
2022-12-08T16:44:30.745Z,100897.66
2022-12-08T16:46:58.467Z,100898.50
2022-12-08T16:49:26.267Z,100895.91
2022-12-08T16:51:54.354Z,100901.91
2022-12-08T16:54:22.027Z,100895.09
2022-12-08T16:56:49.797Z,100883.12
2022-12-08T16:59:17.900Z,100896.78
2022-12-08T17:01:45.591Z,100889.16
2022-12-08T17:07:01.320Z,100901.87
2022-12-08T17:09:31.128Z,100895.97
2022-12-08T17:12:03.759Z,100901.03
2022-12-08T17:14:34.909Z,100896.78
2022-12-08T17:17:02.913Z,100908.75
2022-12-08T17:19:30.771Z,100909.59
2022-12-08T17:21:59.172Z,100905.31
2022-12-08T17:24:31.483Z,100898.50
2022-12-08T17:27:04.612Z,100894.28
2022-12-08T17:29:33.856Z,100897.69
2022-12-08T17:32:02.236Z,100899.34
2022-12-08T17:34:30.171Z,100899.38
2022-12-08T17:36:57.914Z,100878.88
2022-12-08T17:39:26.364Z,100886.56
2022-12-08T17:41:54.244Z,100881.44
2022-12-08T17:44:22.229Z,100898.56
2022-12-08T17:46:52.881Z,100907.06
2022-12-08T17:49:24.032Z,100900.22
2022-12-08T17:51:55.696Z,100902.81
2022-12-08T17:54:24.386Z,100912.25
2022-12-08T17:56:58.845Z,100907.13
2022-12-08T17:59:28.205Z,100903.69
2022-12-08T18:01:57.529Z,100904.56
2022-12-08T18:04:27.140Z,100907.09
2022-12-08T18:06:55.402Z,100896.84
2022-12-08T18:09:23.280Z,100906.22
2022-12-08T18:11:51.666Z,100904.56
2022-12-08T18:14:19.540Z,100919.91
2022-12-08T18:16:48.141Z,100912.25
2022-12-08T18:19:16.830Z,100919.94
2022-12-08T18:21:44.892Z,100919.91
2022-12-08T18:24:22.429Z,100914.81
2022-12-08T18:26:52.714Z,100914.78
2022-12-08T18:29:22.800Z,100919.91
2022-12-08T18:31:52.377Z,100919.06
2022-12-08T18:34:21.386Z,100924.22
2022-12-08T18:36:49.573Z,100915.66
2022-12-08T18:39:27.203Z,100929.31
2022-12-08T18:41:56.936Z,100931.87
2022-12-08T18:44:25.786Z,100924.16
2022-12-08T18:46:53.663Z,100921.63
2022-12-08T18:49:21.502Z,100921.66
2022-12-08T18:51:49.677Z,100905.41
2022-12-08T18:54:20.208Z,100908.84
2022-12-08T18:56:52.927Z,100913.09
2022-12-08T18:59:23.114Z,100913.12
2022-12-08T19:01:50.923Z,100905.44
2022-12-08T19:04:38.546Z,100913.97
2022-12-08T19:07:07.467Z,100905.41
2022-12-08T19:09:35.793Z,100916.56
2022-12-08T19:12:04.517Z,100917.38
2022-12-08T19:14:35.538Z,100917.38
2022-12-08T19:17:03.762Z,100913.12
2022-12-08T19:19:31.677Z,100916.53
2022-12-08T19:21:59.520Z,100921.66
2022-12-08T19:24:27.784Z,100918.25
2022-12-08T19:26:55.826Z,100913.12
2022-12-08T19:29:33.001Z,100923.38
2022-12-08T19:32:01.741Z,100925.09
2022-12-08T19:34:29.964Z,100924.22
2022-12-08T19:36:58.324Z,100924.22
2022-12-08T19:39:45.266Z,100919.09
2022-12-08T19:42:36.828Z,100932.78
2022-12-08T19:45:12.197Z,100931.94
2022-12-08T19:47:40.935Z,100945.59
2022-12-08T19:50:30.033Z,100941.31
2022-12-08T19:52:58.271Z,100942.19
2022-12-08T19:55:27.327Z,100945.56
2022-12-08T19:57:58.649Z,100938.75
2022-12-08T20:00:26.850Z,100940.47
2022-12-08T20:02:55.278Z,100949.03
2022-12-08T20:05:26.707Z,100947.31
2022-12-08T20:07:56.431Z,100945.59
2022-12-08T20:10:30.922Z,100949.91
2022-12-08T20:13:17.308Z,100956.66
2022-12-08T20:15:46.643Z,100958.44
2022-12-08T20:18:15.706Z,100960.97
2022-12-08T20:20:45.287Z,100962.72
2022-12-08T20:23:15.102Z,100968.69
2022-12-08T20:25:44.925Z,100961.00
2022-12-08T20:28:13.213Z,100957.56
2022-12-08T20:30:42.647Z,100961.00
2022-12-08T20:33:13.160Z,100966.97
2022-12-08T20:35:42.189Z,100960.13
2022-12-08T20:38:11.031Z,100965.28
2022-12-08T20:40:47.325Z,100963.56
2022-12-08T20:43:15.466Z,100961.00
2022-12-08T20:45:43.474Z,100960.16
2022-12-08T20:48:11.632Z,100957.56
2022-12-08T20:50:39.761Z,100949.88
2022-12-08T20:53:08.681Z,100941.34
2022-12-08T20:55:36.582Z,100954.19
2022-12-08T20:58:04.946Z,100949.03
2022-12-08T21:00:32.829Z,100949.03
2022-12-08T21:03:01.265Z,100949.88
2022-12-08T21:05:30.051Z,100945.63
2022-12-08T21:07:58.192Z,100955.03
2022-12-08T21:10:26.493Z,100960.16
2022-12-08T21:12:54.742Z,100953.31
2022-12-08T21:15:22.762Z,100953.31
2022-12-08T21:17:50.756Z,100950.72
2022-12-08T21:20:18.934Z,100948.16
2022-12-08T21:22:47.365Z,100961.84
2022-12-08T21:25:17.138Z,100966.16
2022-12-08T21:27:45.401Z,100955.87
2022-12-08T21:30:13.919Z,100955.03
2022-12-08T21:32:41.819Z,100956.72
2022-12-08T21:35:10.752Z,100961.00
2022-12-08T21:37:38.710Z,100961.03
2022-12-08T21:40:08.084Z,100961.03
2022-12-08T21:42:46.200Z,100970.44
2022-12-08T21:45:21.616Z,100974.69
2022-12-08T21:47:50.673Z,100956.75
2022-12-08T21:50:19.651Z,100962.72
2022-12-08T21:52:50.805Z,100963.59
2022-12-08T21:55:20.725Z,100957.59
2022-12-08T21:57:48.834Z,100974.69
2022-12-08T22:00:17.419Z,100967.84
2022-12-08T22:02:46.520Z,100966.13
2022-12-08T22:05:17.681Z,100960.16
2022-12-08T22:07:46.148Z,100957.59
2022-12-08T22:10:14.165Z,100954.19
2022-12-08T22:12:42.460Z,100950.78
2022-12-08T22:15:11.603Z,100948.19
2022-12-08T22:17:41.889Z,100949.06
2022-12-08T22:20:13.392Z,100943.06
2022-12-08T22:22:41.849Z,100941.34
2022-12-08T22:25:14.165Z,100938.78
2022-12-08T22:27:42.251Z,100943.94
2022-12-08T22:30:11.891Z,100932.78
2022-12-08T22:32:40.302Z,100944.78
2022-12-08T22:35:08.788Z,100952.47
2022-12-08T22:37:37.056Z,100942.22
2022-12-08T22:40:06.497Z,100950.75
2022-12-08T22:42:34.610Z,100947.34
2022-12-08T22:47:49.077Z,100948.19
2022-12-08T22:50:17.283Z,100949.91
2022-12-08T22:52:48.402Z,100960.16
2022-12-08T22:55:16.457Z,100951.59
2022-12-08T22:57:44.537Z,100952.47
2022-12-08T23:00:12.954Z,100956.75
2022-12-08T23:02:44.298Z,100960.16
2022-12-08T23:05:13.088Z,100961.03
2022-12-08T23:07:41.073Z,100966.16
2022-12-08T23:10:09.909Z,100964.44
2022-12-08T23:12:38.950Z,100957.59
2022-12-08T23:15:07.394Z,100967.84
2022-12-08T23:17:35.310Z,100968.69
2022-12-08T23:20:03.994Z,100961.88
2022-12-08T23:22:32.218Z,100965.28
2022-12-08T23:24:59.969Z,100962.72
2022-12-08T23:27:28.196Z,100956.72
2022-12-08T23:29:56.205Z,100961.03
2022-12-08T23:32:24.157Z,100964.44
2022-12-08T23:34:52.396Z,100963.56
2022-12-08T23:37:20.470Z,100963.59
2022-12-08T23:39:48.465Z,100962.69
2022-12-08T23:42:16.717Z,100963.56
2022-12-08T23:44:44.639Z,100962.69
2022-12-08T23:47:12.713Z,100950.75
2022-12-08T23:49:40.897Z,100961.03
2022-12-08T23:52:14.237Z,100957.59
2022-12-08T23:54:42.544Z,100957.59
2022-12-08T23:57:10.376Z,100955.87
2022-12-08T23:59:38.240Z,100950.75
